sensor_id;sensor_type;location;lat;lon;timestamp;temperature;humidity
7388;DHT22;3735;50.136;11.062;2022-08-01T00:00:39;19.70;99.90
7388;DHT22;3735;50.136;11.062;2022-08-01T00:03:05;19.70;99.90
7388;DHT22;3735;50.136;11.062;2022-08-01T00:05:31;19.60;99.90
7388;DHT22;3735;50.136;11.062;2022-08-01T00:07:57;19.60;99.90
7388;DHT22;3735;50.136;11.062;2022-08-01T00:10:23;19.50;99.90
7388;DHT22;3735;50.136;11.062;2022-08-01T00:12:49;19.50;99.90
7388;DHT22;3735;50.136;11.062;2022-08-01T00:15:16;19.50;99.90
7388;DHT22;3735;50.136;11.062;2022-08-01T00:17:43;19.40;99.90
7388;DHT22;3735;50.136;11.062;2022-08-01T00:20:11;19.40;99.90
7388;DHT22;3735;50.136;11.062;2022-08-01T00:22:38;19.30;99.90
7388;DHT22;3735;50.136;11.062;2022-08-01T00:25:05;19.30;99.90
7388;DHT22;3735;50.136;11.062;2022-08-01T00:27:31;19.20;99.90
7388;DHT22;3735;50.136;11.062;2022-08-01T00:29:57;19.10;99.90
7388;DHT22;3735;50.136;11.062;2022-08-01T00:32:24;19.10;99.90
7388;DHT22;3735;50.136;11.062;2022-08-01T00:34:50;19.00;99.90
7388;DHT22;3735;50.136;11.062;2022-08-01T00:37:16;19.00;99.90
7388;DHT22;3735;50.136;11.062;2022-08-01T00:39:42;18.90;99.90
7388;DHT22;3735;50.136;11.062;2022-08-01T00:42:12;18.80;99.90
7388;DHT22;3735;50.136;11.062;2022-08-01T00:44:39;18.80;99.90
7388;DHT22;3735;50.136;11.062;2022-08-01T00:47:06;18.70;99.90
7388;DHT22;3735;50.136;11.062;2022-08-01T00:49:32;18.60;99.90
7388;DHT22;3735;50.136;11.062;2022-08-01T00:51:58;18.40;99.90
7388;DHT22;3735;50.136;11.062;2022-08-01T00:54:25;18.30;99.90
7388;DHT22;3735;50.136;11.062;2022-08-01T00:56:52;18.10;99.90
7388;DHT22;3735;50.136;11.062;2022-08-01T00:59:21;18.00;99.90
7388;DHT22;3735;50.136;11.062;2022-08-01T01:01:48;17.90;99.90
7388;DHT22;3735;50.136;11.062;2022-08-01T01:04:14;17.90;99.90
7388;DHT22;3735;50.136;11.062;2022-08-01T01:07:03;17.90;99.90
7388;DHT22;3735;50.136;11.062;2022-08-01T01:15:30;18.00;99.90
7388;DHT22;3735;50.136;11.062;2022-08-01T01:18:00;18.00;99.90
7388;DHT22;3735;50.136;11.062;2022-08-01T01:20:32;18.00;99.90
7388;DHT22;3735;50.136;11.062;2022-08-01T01:23:12;18.00;99.90
7388;DHT22;3735;50.136;11.062;2022-08-01T01:31:40;18.20;99.90
7388;DHT22;3735;50.136;11.062;2022-08-01T01:34:21;18.30;99.90
7388;DHT22;3735;50.136;11.062;2022-08-01T01:36:50;18.60;99.90
7388;DHT22;3735;50.136;11.062;2022-08-01T01:39:20;18.80;99.90
7388;DHT22;3735;50.136;11.062;2022-08-01T01:41:49;19.10;99.90
7388;DHT22;3735;50.136;11.062;2022-08-01T01:44:18;19.30;99.90
7388;DHT22;3735;50.136;11.062;2022-08-01T01:46:45;19.40;99.90
7388;DHT22;3735;50.136;11.062;2022-08-01T01:49:12;19.50;99.90
7388;DHT22;3735;50.136;11.062;2022-08-01T01:51:41;19.60;99.90
7388;DHT22;3735;50.136;11.062;2022-08-01T01:54:09;19.60;99.90
7388;DHT22;3735;50.136;11.062;2022-08-01T01:56:36;19.60;99.90
7388;DHT22;3735;50.136;11.062;2022-08-01T01:59:18;19.60;99.90
7388;DHT22;3735;50.136;11.062;2022-08-01T02:01:48;19.60;99.90
7388;DHT22;3735;50.136;11.062;2022-08-01T02:04:16;19.60;99.90
7388;DHT22;3735;50.136;11.062;2022-08-01T02:06:47;19.60;99.90
7388;DHT22;3735;50.136;11.062;2022-08-01T02:09:20;19.60;99.90
7388;DHT22;3735;50.136;11.062;2022-08-01T02:11:48;19.60;99.90
7388;DHT22;3735;50.136;11.062;2022-08-01T02:14:17;19.60;99.90
7388;DHT22;3735;50.136;11.062;2022-08-01T02:16:47;19.50;99.90
7388;DHT22;3735;50.136;11.062;2022-08-01T02:19:17;19.30;99.90
7388;DHT22;3735;50.136;11.062;2022-08-01T02:21:51;19.20;99.90
7388;DHT22;3735;50.136;11.062;2022-08-01T02:27:28;19.00;99.90
7388;DHT22;3735;50.136;11.062;2022-08-01T02:30:06;18.90;99.90
7388;DHT22;3735;50.136;11.062;2022-08-01T02:32:47;18.90;99.90
7388;DHT22;3735;50.136;11.062;2022-08-01T02:35:25;18.80;99.90
7388;DHT22;3735;50.136;11.062;2022-08-01T02:37:55;18.70;99.90
7388;DHT22;3735;50.136;11.062;2022-08-01T02:40:24;18.60;99.90
7388;DHT22;3735;50.136;11.062;2022-08-01T02:42:54;18.50;99.90
7388;DHT22;3735;50.136;11.062;2022-08-01T02:45:24;18.40;99.90
7388;DHT22;3735;50.136;11.062;2022-08-01T02:47:54;18.40;99.90
7388;DHT22;3735;50.136;11.062;2022-08-01T02:50:27;18.30;99.90
7388;DHT22;3735;50.136;11.062;2022-08-01T02:52:55;18.20;99.90
7388;DHT22;3735;50.136;11.062;2022-08-01T02:55:23;18.10;99.90
7388;DHT22;3735;50.136;11.062;2022-08-01T02:57:52;18.00;99.90
7388;DHT22;3735;50.136;11.062;2022-08-01T03:00:20;18.00;99.90
7388;DHT22;3735;50.136;11.062;2022-08-01T03:02:47;17.90;99.90
7388;DHT22;3735;50.136;11.062;2022-08-01T03:05:17;17.80;99.90
7388;DHT22;3735;50.136;11.062;2022-08-01T03:07:43;17.80;99.90
7388;DHT22;3735;50.136;11.062;2022-08-01T03:10:10;17.80;99.90
7388;DHT22;3735;50.136;11.062;2022-08-01T03:12:39;17.80;99.90
7388;DHT22;3735;50.136;11.062;2022-08-01T03:15:06;17.80;99.90
7388;DHT22;3735;50.136;11.062;2022-08-01T03:17:35;17.80;99.90
7388;DHT22;3735;50.136;11.062;2022-08-01T03:20:04;17.70;99.90
7388;DHT22;3735;50.136;11.062;2022-08-01T03:22:32;17.70;99.90
7388;DHT22;3735;50.136;11.062;2022-08-01T03:25:02;17.60;99.90
7388;DHT22;3735;50.136;11.062;2022-08-01T03:27:29;17.60;99.90
7388;DHT22;3735;50.136;11.062;2022-08-01T03:29:56;17.50;99.90
7388;DHT22;3735;50.136;11.062;2022-08-01T03:32:25;17.50;99.90
7388;DHT22;3735;50.136;11.062;2022-08-01T03:34:52;17.50;99.90
7388;DHT22;3735;50.136;11.062;2022-08-01T03:37:27;17.60;99.90
7388;DHT22;3735;50.136;11.062;2022-08-01T03:40:19;17.60;99.90
7388;DHT22;3735;50.136;11.062;2022-08-01T03:42:50;17.60;99.90
7388;DHT22;3735;50.136;11.062;2022-08-01T03:45:25;17.60;99.90
7388;DHT22;3735;50.136;11.062;2022-08-01T03:48:00;17.60;99.90
7388;DHT22;3735;50.136;11.062;2022-08-01T03:50:29;17.60;99.90
7388;DHT22;3735;50.136;11.062;2022-08-01T03:53:00;17.50;99.90
7388;DHT22;3735;50.136;11.062;2022-08-01T03:55:28;17.50;99.90
7388;DHT22;3735;50.136;11.062;2022-08-01T03:57:57;17.40;99.90
7388;DHT22;3735;50.136;11.062;2022-08-01T04:00:24;17.50;99.90
7388;DHT22;3735;50.136;11.062;2022-08-01T04:02:51;17.60;99.90
7388;DHT22;3735;50.136;11.062;2022-08-01T04:05:19;17.70;99.90
7388;DHT22;3735;50.136;11.062;2022-08-01T04:07:47;17.80;99.90
7388;DHT22;3735;50.136;11.062;2022-08-01T04:10:23;17.90;99.90
7388;DHT22;3735;50.136;11.062;2022-08-01T04:12:49;18.00;99.90
7388;DHT22;3735;50.136;11.062;2022-08-01T04:15:16;18.10;99.90
7388;DHT22;3735;50.136;11.062;2022-08-01T04:17:42;18.10;99.90
7388;DHT22;3735;50.136;11.062;2022-08-01T04:20:09;18.20;99.90
7388;DHT22;3735;50.136;11.062;2022-08-01T04:22:36;18.20;99.90
7388;DHT22;3735;50.136;11.062;2022-08-01T04:25:07;18.30;99.90
7388;DHT22;3735;50.136;11.062;2022-08-01T04:27:40;18.30;99.90
7388;DHT22;3735;50.136;11.062;2022-08-01T04:30:11;18.40;99.90
7388;DHT22;3735;50.136;11.062;2022-08-01T04:32:40;18.50;99.90
7388;DHT22;3735;50.136;11.062;2022-08-01T04:35:12;18.50;99.90
7388;DHT22;3735;50.136;11.062;2022-08-01T04:37:44;18.70;99.90
7388;DHT22;3735;50.136;11.062;2022-08-01T04:40:13;18.90;99.90
7388;DHT22;3735;50.136;11.062;2022-08-01T04:42:41;19.10;99.90
7388;DHT22;3735;50.136;11.062;2022-08-01T04:45:08;19.30;99.90
7388;DHT22;3735;50.136;11.062;2022-08-01T04:47:35;19.40;99.90
7388;DHT22;3735;50.136;11.062;2022-08-01T04:50:07;19.60;99.90
7388;DHT22;3735;50.136;11.062;2022-08-01T04:52:36;19.60;99.90
7388;DHT22;3735;50.136;11.062;2022-08-01T04:55:03;19.40;99.90
7388;DHT22;3735;50.136;11.062;2022-08-01T04:57:33;19.40;99.90
7388;DHT22;3735;50.136;11.062;2022-08-01T05:00:01;19.30;99.90
7388;DHT22;3735;50.136;11.062;2022-08-01T05:02:28;19.30;99.90
7388;DHT22;3735;50.136;11.062;2022-08-01T05:04:54;19.30;99.90
7388;DHT22;3735;50.136;11.062;2022-08-01T05:07:20;19.40;99.90
7388;DHT22;3735;50.136;11.062;2022-08-01T05:09:46;19.40;99.90
7388;DHT22;3735;50.136;11.062;2022-08-01T05:12:12;19.50;99.90
7388;DHT22;3735;50.136;11.062;2022-08-01T05:14:39;19.60;99.90
7388;DHT22;3735;50.136;11.062;2022-08-01T05:17:06;19.70;99.90
7388;DHT22;3735;50.136;11.062;2022-08-01T05:19:34;19.80;99.90
7388;DHT22;3735;50.136;11.062;2022-08-01T05:22:01;19.80;99.90
7388;DHT22;3735;50.136;11.062;2022-08-01T05:24:36;20.00;99.90
7388;DHT22;3735;50.136;11.062;2022-08-01T05:27:04;20.30;99.90
7388;DHT22;3735;50.136;11.062;2022-08-01T05:29:30;20.70;99.90
7388;DHT22;3735;50.136;11.062;2022-08-01T05:31:56;21.30;99.90
7388;DHT22;3735;50.136;11.062;2022-08-01T05:34:23;22.00;99.90
7388;DHT22;3735;50.136;11.062;2022-08-01T05:36:49;23.00;99.90
7388;DHT22;3735;50.136;11.062;2022-08-01T05:39:14;23.90;99.90
7388;DHT22;3735;50.136;11.062;2022-08-01T05:41:41;24.60;99.90
7388;DHT22;3735;50.136;11.062;2022-08-01T05:44:07;25.10;99.90
7388;DHT22;3735;50.136;11.062;2022-08-01T05:46:33;25.60;99.90
7388;DHT22;3735;50.136;11.062;2022-08-01T05:49:01;26.20;99.90
7388;DHT22;3735;50.136;11.062;2022-08-01T05:51:28;26.80;99.90
7388;DHT22;3735;50.136;11.062;2022-08-01T05:53:54;27.30;99.90
7388;DHT22;3735;50.136;11.062;2022-08-01T05:56:20;28.10;99.90
7388;DHT22;3735;50.136;11.062;2022-08-01T05:58:47;28.20;99.90
7388;DHT22;3735;50.136;11.062;2022-08-01T06:01:14;28.10;99.90
7388;DHT22;3735;50.136;11.062;2022-08-01T06:03:41;27.60;99.90
7388;DHT22;3735;50.136;11.062;2022-08-01T06:06:07;27.00;99.90
7388;DHT22;3735;50.136;11.062;2022-08-01T06:08:32;26.80;99.90
7388;DHT22;3735;50.136;11.062;2022-08-01T06:10:58;26.50;99.90
7388;DHT22;3735;50.136;11.062;2022-08-01T06:13:24;26.20;99.90
7388;DHT22;3735;50.136;11.062;2022-08-01T06:15:51;26.00;99.90
7388;DHT22;3735;50.136;11.062;2022-08-01T06:18:17;25.70;99.90
7388;DHT22;3735;50.136;11.062;2022-08-01T06:20:43;25.30;99.90
7388;DHT22;3735;50.136;11.062;2022-08-01T06:23:09;25.10;99.90
7388;DHT22;3735;50.136;11.062;2022-08-01T06:25:35;25.00;99.90
7388;DHT22;3735;50.136;11.062;2022-08-01T06:28:02;24.80;99.90
7388;DHT22;3735;50.136;11.062;2022-08-01T06:30:28;24.60;99.90
7388;DHT22;3735;50.136;11.062;2022-08-01T06:32:54;24.20;99.90
7388;DHT22;3735;50.136;11.062;2022-08-01T06:35:21;23.80;99.90
7388;DHT22;3735;50.136;11.062;2022-08-01T06:37:47;23.50;99.90
7388;DHT22;3735;50.136;11.062;2022-08-01T06:40:14;23.80;99.90
7388;DHT22;3735;50.136;11.062;2022-08-01T06:42:40;24.60;99.90
7388;DHT22;3735;50.136;11.062;2022-08-01T06:45:08;24.80;99.90
7388;DHT22;3735;50.136;11.062;2022-08-01T06:47:35;25.10;99.90
7388;DHT22;3735;50.136;11.062;2022-08-01T06:50:03;25.10;99.90
7388;DHT22;3735;50.136;11.062;2022-08-01T06:52:30;25.30;99.90
7388;DHT22;3735;50.136;11.062;2022-08-01T06:54:55;25.10;99.90
7388;DHT22;3735;50.136;11.062;2022-08-01T06:57:21;25.60;99.90
7388;DHT22;3735;50.136;11.062;2022-08-01T06:59:48;26.00;99.90
7388;DHT22;3735;50.136;11.062;2022-08-01T07:02:13;26.20;99.90
7388;DHT22;3735;50.136;11.062;2022-08-01T07:04:39;27.60;99.90
7388;DHT22;3735;50.136;11.062;2022-08-01T07:07:05;29.30;99.90
7388;DHT22;3735;50.136;11.062;2022-08-01T07:09:32;30.60;99.90
7388;DHT22;3735;50.136;11.062;2022-08-01T07:11:57;30.60;99.90
7388;DHT22;3735;50.136;11.062;2022-08-01T07:14:24;30.80;99.90
7388;DHT22;3735;50.136;11.062;2022-08-01T07:16:50;30.20;99.90
7388;DHT22;3735;50.136;11.062;2022-08-01T07:19:17;29.40;99.90
7388;DHT22;3735;50.136;11.062;2022-08-01T07:21:43;28.40;99.90
7388;DHT22;3735;50.136;11.062;2022-08-01T07:24:11;27.60;99.90
7388;DHT22;3735;50.136;11.062;2022-08-01T07:26:39;27.30;99.90
7388;DHT22;3735;50.136;11.062;2022-08-01T07:29:07;27.60;99.90
7388;DHT22;3735;50.136;11.062;2022-08-01T07:31:32;27.70;99.90
7388;DHT22;3735;50.136;11.062;2022-08-01T07:33:58;27.80;99.90
7388;DHT22;3735;50.136;11.062;2022-08-01T07:36:24;28.00;99.90
7388;DHT22;3735;50.136;11.062;2022-08-01T07:38:50;28.00;99.90
7388;DHT22;3735;50.136;11.062;2022-08-01T07:41:15;27.70;99.90
7388;DHT22;3735;50.136;11.062;2022-08-01T07:43:41;27.20;99.90
7388;DHT22;3735;50.136;11.062;2022-08-01T07:46:07;26.80;99.90
7388;DHT22;3735;50.136;11.062;2022-08-01T07:48:33;26.50;99.90
7388;DHT22;3735;50.136;11.062;2022-08-01T07:50:59;26.20;99.90
7388;DHT22;3735;50.136;11.062;2022-08-01T07:53:25;25.80;99.90
7388;DHT22;3735;50.136;11.062;2022-08-01T07:55:52;25.50;99.90
7388;DHT22;3735;50.136;11.062;2022-08-01T07:58:18;25.30;99.90
7388;DHT22;3735;50.136;11.062;2022-08-01T08:00:44;25.20;99.90
7388;DHT22;3735;50.136;11.062;2022-08-01T08:03:10;25.40;99.90
7388;DHT22;3735;50.136;11.062;2022-08-01T08:05:36;25.50;99.90
7388;DHT22;3735;50.136;11.062;2022-08-01T08:08:06;25.50;99.90
7388;DHT22;3735;50.136;11.062;2022-08-01T08:10:33;25.60;99.90
7388;DHT22;3735;50.136;11.062;2022-08-01T08:13:00;25.60;99.90
7388;DHT22;3735;50.136;11.062;2022-08-01T08:15:27;25.70;99.90
7388;DHT22;3735;50.136;11.062;2022-08-01T08:17:53;25.70;99.90
7388;DHT22;3735;50.136;11.062;2022-08-01T08:20:19;25.70;99.90
7388;DHT22;3735;50.136;11.062;2022-08-01T08:22:50;25.80;99.90
7388;DHT22;3735;50.136;11.062;2022-08-01T08:25:17;25.80;99.90
7388;DHT22;3735;50.136;11.062;2022-08-01T08:27:45;26.00;99.90
7388;DHT22;3735;50.136;11.062;2022-08-01T08:30:11;26.10;99.90
7388;DHT22;3735;50.136;11.062;2022-08-01T08:32:38;26.40;99.90
7388;DHT22;3735;50.136;11.062;2022-08-01T08:35:05;26.70;99.90
7388;DHT22;3735;50.136;11.062;2022-08-01T08:37:36;27.10;99.90
7388;DHT22;3735;50.136;11.062;2022-08-01T08:40:04;27.20;99.90
7388;DHT22;3735;50.136;11.062;2022-08-01T08:42:30;27.20;99.90
7388;DHT22;3735;50.136;11.062;2022-08-01T08:44:56;27.00;99.90
7388;DHT22;3735;50.136;11.062;2022-08-01T08:47:24;26.80;99.90
7388;DHT22;3735;50.136;11.062;2022-08-01T08:49:54;26.80;99.90
7388;DHT22;3735;50.136;11.062;2022-08-01T08:52:22;26.80;99.90
7388;DHT22;3735;50.136;11.062;2022-08-01T08:54:49;26.60;99.90
7388;DHT22;3735;50.136;11.062;2022-08-01T08:57:19;26.50;99.90
7388;DHT22;3735;50.136;11.062;2022-08-01T08:59:46;26.40;99.90
7388;DHT22;3735;50.136;11.062;2022-08-01T09:02:13;26.40;99.90
7388;DHT22;3735;50.136;11.062;2022-08-01T09:04:39;27.00;99.90
7388;DHT22;3735;50.136;11.062;2022-08-01T09:07:06;27.20;99.90
7388;DHT22;3735;50.136;11.062;2022-08-01T09:09:33;26.60;99.90
7388;DHT22;3735;50.136;11.062;2022-08-01T09:11:59;26.20;99.90
7388;DHT22;3735;50.136;11.062;2022-08-01T09:14:26;25.90;99.90
7388;DHT22;3735;50.136;11.062;2022-08-01T09:17:06;25.70;99.90
7388;DHT22;3735;50.136;11.062;2022-08-01T09:19:40;25.50;99.90
7388;DHT22;3735;50.136;11.062;2022-08-01T09:22:12;25.30;99.90
7388;DHT22;3735;50.136;11.062;2022-08-01T09:24:57;25.20;99.90
7388;DHT22;3735;50.136;11.062;2022-08-01T09:27:24;25.30;99.90
7388;DHT22;3735;50.136;11.062;2022-08-01T09:29:53;25.20;99.90
7388;DHT22;3735;50.136;11.062;2022-08-01T09:32:20;24.90;99.90
7388;DHT22;3735;50.136;11.062;2022-08-01T09:34:46;24.60;99.90
7388;DHT22;3735;50.136;11.062;2022-08-01T09:37:12;24.20;99.90
7388;DHT22;3735;50.136;11.062;2022-08-01T09:39:42;23.70;99.90
7388;DHT22;3735;50.136;11.062;2022-08-01T09:42:22;23.40;99.90
7388;DHT22;3735;50.136;11.062;2022-08-01T09:44:50;23.30;99.90
7388;DHT22;3735;50.136;11.062;2022-08-01T09:47:18;23.40;99.90
7388;DHT22;3735;50.136;11.062;2022-08-01T09:49:53;23.30;99.90
7388;DHT22;3735;50.136;11.062;2022-08-01T09:52:25;23.30;99.90
7388;DHT22;3735;50.136;11.062;2022-08-01T09:55:01;23.40;99.90
7388;DHT22;3735;50.136;11.062;2022-08-01T09:57:29;23.70;99.90
7388;DHT22;3735;50.136;11.062;2022-08-01T09:59:58;24.20;99.90
7388;DHT22;3735;50.136;11.062;2022-08-01T10:02:34;24.70;99.90
7388;DHT22;3735;50.136;11.062;2022-08-01T10:05:10;24.90;99.90
7388;DHT22;3735;50.136;11.062;2022-08-01T10:07:55;24.90;99.90
7388;DHT22;3735;50.136;11.062;2022-08-01T10:10:26;25.30;99.90
7388;DHT22;3735;50.136;11.062;2022-08-01T10:12:54;25.80;99.90
7388;DHT22;3735;50.136;11.062;2022-08-01T10:15:22;26.40;99.90
7388;DHT22;3735;50.136;11.062;2022-08-01T10:17:57;26.90;99.90
7388;DHT22;3735;50.136;11.062;2022-08-01T10:20:27;27.90;99.90
7388;DHT22;3735;50.136;11.062;2022-08-01T10:22:57;28.70;99.90
7388;DHT22;3735;50.136;11.062;2022-08-01T10:25:28;29.50;99.90
7388;DHT22;3735;50.136;11.062;2022-08-01T10:27:59;29.80;99.90
7388;DHT22;3735;50.136;11.062;2022-08-01T10:30:31;29.80;99.90
7388;DHT22;3735;50.136;11.062;2022-08-01T10:32:58;30.70;99.90
7388;DHT22;3735;50.136;11.062;2022-08-01T10:35:25;30.60;99.90
7388;DHT22;3735;50.136;11.062;2022-08-01T10:37:50;30.40;99.90
7388;DHT22;3735;50.136;11.062;2022-08-01T10:40:21;30.30;99.90
7388;DHT22;3735;50.136;11.062;2022-08-01T10:42:47;30.70;99.90
7388;DHT22;3735;50.136;11.062;2022-08-01T10:45:15;32.50;99.90
7388;DHT22;3735;50.136;11.062;2022-08-01T10:48:02;34.80;99.90
7388;DHT22;3735;50.136;11.062;2022-08-01T10:53:18;34.20;99.90
7388;DHT22;3735;50.136;11.062;2022-08-01T10:55:50;33.10;99.90
7388;DHT22;3735;50.136;11.062;2022-08-01T10:58:33;32.70;99.90
7388;DHT22;3735;50.136;11.062;2022-08-01T11:04:20;35.70;99.90
7388;DHT22;3735;50.136;11.062;2022-08-01T11:07:04;36.80;99.90
7388;DHT22;3735;50.136;11.062;2022-08-01T11:09:40;37.00;99.90
7388;DHT22;3735;50.136;11.062;2022-08-01T11:12:09;37.60;99.90
7388;DHT22;3735;50.136;11.062;2022-08-01T11:17:43;35.00;99.90
7388;DHT22;3735;50.136;11.062;2022-08-01T11:30:45;34.30;99.90
7388;DHT22;3735;50.136;11.062;2022-08-01T11:33:12;33.50;99.90
7388;DHT22;3735;50.136;11.062;2022-08-01T11:41:32;31.70;99.90
7388;DHT22;3735;50.136;11.062;2022-08-01T11:44:10;31.20;99.90
7388;DHT22;3735;50.136;11.062;2022-08-01T11:47:01;30.70;99.90
7388;DHT22;3735;50.136;11.062;2022-08-01T11:54:54;30.60;99.90
7388;DHT22;3735;50.136;11.062;2022-08-01T11:57:30;31.20;99.90
7388;DHT22;3735;50.136;11.062;2022-08-01T11:59:59;32.60;99.90
7388;DHT22;3735;50.136;11.062;2022-08-01T12:02:31;33.10;99.90
7388;DHT22;3735;50.136;11.062;2022-08-01T12:07:28;32.50;99.90
7388;DHT22;3735;50.136;11.062;2022-08-01T12:10:10;32.30;99.90
7388;DHT22;3735;50.136;11.062;2022-08-01T12:13:00;31.90;99.90
7388;DHT22;3735;50.136;11.062;2022-08-01T12:15:34;31.40;99.90
7388;DHT22;3735;50.136;11.062;2022-08-01T12:18:03;31.10;99.90
7388;DHT22;3735;50.136;11.062;2022-08-01T12:20:37;31.50;99.90
7388;DHT22;3735;50.136;11.062;2022-08-01T12:23:06;32.20;99.90
7388;DHT22;3735;50.136;11.062;2022-08-01T12:25:35;32.20;99.90
7388;DHT22;3735;50.136;11.062;2022-08-01T12:28:06;32.30;99.90
7388;DHT22;3735;50.136;11.062;2022-08-01T12:30:35;32.60;99.90
7388;DHT22;3735;50.136;11.062;2022-08-01T12:33:07;33.50;99.90
7388;DHT22;3735;50.136;11.062;2022-08-01T12:35:36;33.50;99.90
7388;DHT22;3735;50.136;11.062;2022-08-01T12:38:14;32.90;99.90
7388;DHT22;3735;50.136;11.062;2022-08-01T12:40:44;31.90;99.90
7388;DHT22;3735;50.136;11.062;2022-08-01T12:43:17;30.80;99.90
7388;DHT22;3735;50.136;11.062;2022-08-01T12:45:46;30.20;99.90
7388;DHT22;3735;50.136;11.062;2022-08-01T12:48:15;31.40;99.90
7388;DHT22;3735;50.136;11.062;2022-08-01T12:50:44;33.30;99.90
7388;DHT22;3735;50.136;11.062;2022-08-01T12:53:12;34.50;99.90
7388;DHT22;3735;50.136;11.062;2022-08-01T12:55:48;35.00;99.90
7388;DHT22;3735;50.136;11.062;2022-08-01T12:58:16;36.40;99.90
7388;DHT22;3735;50.136;11.062;2022-08-01T13:00:45;37.10;99.90
7388;DHT22;3735;50.136;11.062;2022-08-01T13:03:17;37.90;99.90
7388;DHT22;3735;50.136;11.062;2022-08-01T13:08:13;39.00;80.40
7388;DHT22;3735;50.136;11.062;2022-08-01T13:10:41;37.90;82.90
7388;DHT22;3735;50.136;11.062;2022-08-01T13:13:08;38.60;87.90
7388;DHT22;3735;50.136;11.062;2022-08-01T13:15:38;39.90;75.10
7388;DHT22;3735;50.136;11.062;2022-08-01T13:18:27;40.90;61.10
7388;DHT22;3735;50.136;11.062;2022-08-01T13:23:40;41.10;55.20
7388;DHT22;3735;50.136;11.062;2022-08-01T13:26:08;41.20;57.00
7388;DHT22;3735;50.136;11.062;2022-08-01T13:28:34;40.50;55.10
7388;DHT22;3735;50.136;11.062;2022-08-01T13:31:07;40.50;57.40
7388;DHT22;3735;50.136;11.062;2022-08-01T13:34:00;40.30;60.30
7388;DHT22;3735;50.136;11.062;2022-08-01T13:36:26;40.40;58.00
7388;DHT22;3735;50.136;11.062;2022-08-01T13:38:54;40.30;58.80
7388;DHT22;3735;50.136;11.062;2022-08-01T13:41:39;40.00;61.20
7388;DHT22;3735;50.136;11.062;2022-08-01T13:44:05;39.70;57.40
7388;DHT22;3735;50.136;11.062;2022-08-01T13:46:34;38.60;60.00
7388;DHT22;3735;50.136;11.062;2022-08-01T13:49:01;37.20;70.40
7388;DHT22;3735;50.136;11.062;2022-08-01T13:51:28;37.10;76.40
7388;DHT22;3735;50.136;11.062;2022-08-01T13:53:53;37.90;74.70
7388;DHT22;3735;50.136;11.062;2022-08-01T13:56:19;38.10;74.20
7388;DHT22;3735;50.136;11.062;2022-08-01T13:58:46;36.80;77.20
7388;DHT22;3735;50.136;11.062;2022-08-01T14:01:12;35.20;94.30
7388;DHT22;3735;50.136;11.062;2022-08-01T14:03:38;33.80;99.90
7388;DHT22;3735;50.136;11.062;2022-08-01T14:06:04;33.10;99.90
7388;DHT22;3735;50.136;11.062;2022-08-01T14:08:30;32.40;99.90
7388;DHT22;3735;50.136;11.062;2022-08-01T14:10:57;32.00;99.90
7388;DHT22;3735;50.136;11.062;2022-08-01T14:13:27;31.90;99.90
7388;DHT22;3735;50.136;11.062;2022-08-01T14:15:53;31.80;99.90
7388;DHT22;3735;50.136;11.062;2022-08-01T14:18:19;31.90;99.90
7388;DHT22;3735;50.136;11.062;2022-08-01T14:20:46;32.00;99.90
7388;DHT22;3735;50.136;11.062;2022-08-01T14:23:12;31.80;99.90
7388;DHT22;3735;50.136;11.062;2022-08-01T14:25:38;31.20;99.90
7388;DHT22;3735;50.136;11.062;2022-08-01T14:28:07;31.50;99.90
7388;DHT22;3735;50.136;11.062;2022-08-01T14:30:33;32.30;99.90
7388;DHT22;3735;50.136;11.062;2022-08-01T14:32:59;32.20;99.90
7388;DHT22;3735;50.136;11.062;2022-08-01T14:35:25;31.90;99.90
7388;DHT22;3735;50.136;11.062;2022-08-01T14:37:51;32.00;99.90
7388;DHT22;3735;50.136;11.062;2022-08-01T14:40:17;33.50;99.90
7388;DHT22;3735;50.136;11.062;2022-08-01T14:42:43;33.90;99.90
7388;DHT22;3735;50.136;11.062;2022-08-01T14:45:13;33.30;99.90
7388;DHT22;3735;50.136;11.062;2022-08-01T14:47:40;33.30;99.90
7388;DHT22;3735;50.136;11.062;2022-08-01T14:50:13;33.80;99.90
7388;DHT22;3735;50.136;11.062;2022-08-01T14:52:41;34.30;99.90
7388;DHT22;3735;50.136;11.062;2022-08-01T14:55:09;33.70;99.90
7388;DHT22;3735;50.136;11.062;2022-08-01T14:57:37;33.00;99.90
7388;DHT22;3735;50.136;11.062;2022-08-01T15:00:06;32.30;99.90
7388;DHT22;3735;50.136;11.062;2022-08-01T15:02:40;31.70;99.90
7388;DHT22;3735;50.136;11.062;2022-08-01T15:05:07;31.00;99.90
7388;DHT22;3735;50.136;11.062;2022-08-01T15:07:34;30.40;99.90
7388;DHT22;3735;50.136;11.062;2022-08-01T15:10:02;30.00;99.90
7388;DHT22;3735;50.136;11.062;2022-08-01T15:12:29;29.80;99.90
7388;DHT22;3735;50.136;11.062;2022-08-01T15:14:55;29.80;99.90
7388;DHT22;3735;50.136;11.062;2022-08-01T15:17:26;29.80;99.90
7388;DHT22;3735;50.136;11.062;2022-08-01T15:19:59;29.70;99.90
7388;DHT22;3735;50.136;11.062;2022-08-01T15:22:28;29.70;99.90
7388;DHT22;3735;50.136;11.062;2022-08-01T15:24:55;29.90;99.90
7388;DHT22;3735;50.136;11.062;2022-08-01T15:27:23;30.10;99.90
7388;DHT22;3735;50.136;11.062;2022-08-01T15:29:50;31.10;99.90
7388;DHT22;3735;50.136;11.062;2022-08-01T15:32:16;32.20;99.90
7388;DHT22;3735;50.136;11.062;2022-08-01T15:34:43;32.70;99.90
7388;DHT22;3735;50.136;11.062;2022-08-01T15:37:10;32.60;99.90
7388;DHT22;3735;50.136;11.062;2022-08-01T15:39:37;32.00;99.90
7388;DHT22;3735;50.136;11.062;2022-08-01T15:42:06;31.70;99.90
7388;DHT22;3735;50.136;11.062;2022-08-01T15:44:34;31.40;99.90
7388;DHT22;3735;50.136;11.062;2022-08-01T15:47:01;30.90;99.90
7388;DHT22;3735;50.136;11.062;2022-08-01T15:49:28;30.30;99.90
7388;DHT22;3735;50.136;11.062;2022-08-01T15:51:54;29.80;99.90
7388;DHT22;3735;50.136;11.062;2022-08-01T15:54:20;29.20;99.90
7388;DHT22;3735;50.136;11.062;2022-08-01T15:56:46;28.70;99.90
7388;DHT22;3735;50.136;11.062;2022-08-01T15:59:12;28.30;99.90
7388;DHT22;3735;50.136;11.062;2022-08-01T16:01:38;28.00;99.90
7388;DHT22;3735;50.136;11.062;2022-08-01T16:04:05;27.80;99.90
7388;DHT22;3735;50.136;11.062;2022-08-01T16:06:32;27.70;99.90
7388;DHT22;3735;50.136;11.062;2022-08-01T16:08:59;27.50;99.90
7388;DHT22;3735;50.136;11.062;2022-08-01T16:11:25;27.50;99.90
7388;DHT22;3735;50.136;11.062;2022-08-01T16:13:53;27.50;99.90
7388;DHT22;3735;50.136;11.062;2022-08-01T16:16:20;27.50;99.90
7388;DHT22;3735;50.136;11.062;2022-08-01T16:18:47;27.60;99.90
7388;DHT22;3735;50.136;11.062;2022-08-01T16:21:13;27.60;99.90
7388;DHT22;3735;50.136;11.062;2022-08-01T16:23:40;27.60;99.90
7388;DHT22;3735;50.136;11.062;2022-08-01T16:26:07;27.50;99.90
7388;DHT22;3735;50.136;11.062;2022-08-01T16:28:34;27.40;99.90
7388;DHT22;3735;50.136;11.062;2022-08-01T16:31:00;27.30;99.90
7388;DHT22;3735;50.136;11.062;2022-08-01T16:33:26;27.30;99.90
7388;DHT22;3735;50.136;11.062;2022-08-01T16:35:52;27.30;99.90
7388;DHT22;3735;50.136;11.062;2022-08-01T16:38:19;27.40;99.90
7388;DHT22;3735;50.136;11.062;2022-08-01T16:40:50;27.40;99.90
7388;DHT22;3735;50.136;11.062;2022-08-01T16:43:18;27.50;99.90
7388;DHT22;3735;50.136;11.062;2022-08-01T16:45:44;27.50;99.90
7388;DHT22;3735;50.136;11.062;2022-08-01T16:48:12;27.60;99.90